BHM - Birmingham Shuttlesworth Intl

Pirep is a free, collaborative database of all public and private airports located within the United States. All pilots are welcome to contribute, edit, and improve any airport they have local knowledge about, no registration required.
Are you familiar with this airport? Help out other pilots by adding your local knowledge.
Uploaded photos will be licensed under a CC BY-SA 4.0 license. Please only upload photos you have the rights to use.
Tags
Public
Undocu­mented
METAR / TAF
Edit Tags
Food
Camping
Lodging
Car Rental
Bicycles
Swimming
Golfing
Fishing
Hot Springs
Museum
Flying Clubs
Airpark
Upcoming Events
No upcoming events. Is anything happening here soon?
*
*
*

Where exactly on/near the airport is this event taking place?

Is there a webpage with more information for this event?

Who should be contacted for more information?

What is this event all about?

Repeat every
Description
Transient Parking
Fuel Location
Landing & Tie-down Fees
Crew Car Availability
Flying Clubs
WiFi Access
Airport Statistics
Location: Birmingham, AL
Elevation: 650ft
Sectional: Atlanta
Activation date: Apr 1940
Fuel: 100LL, A (prices)
Runway 06/24: 12,007ft
Runway 18/36: 7,099ft
Access: Open to the public
Current Weather — VFR
  • Weather data is strictly informational and not for flight planning purposes.
  • METAR
    2024-07-21 21:53:00 CDT
    Ceiling Wind Temperature Dewpoint Weather Visbility
    22,000ft 150° @ 5kt 75°F 69°F N/A 10SM
    Clouds: Scattered @ 7,000ft, Broken @ 22,000ft
    Raw: KBHM 220253Z 15005KT 10SM SCT070 BKN220 24/21 A3007 RMK AO2 SLP175 T02390211 51018
  • TAF
    2024-07-21 19:00:00 CDT – 2024-07-22 03:00:00 CDT
    Ceiling Wind Weather Visbility
    20,000ft 170° @ 4kt N/A 6SM
    Clouds: Scattered @ 7,000ft, Broken @ 20,000ft
    Raw: KBHM 212330Z 2200/2224 17004KT P6SM SCT070 BKN200 FM220800 19004KT 6SM BR OVC007 FM221500 20005KT P6SM BKN015 FM221800 20005KT P6SM VCTS BKN035CB
  • TAF
    2024-07-22 03:00:00 CDT – 2024-07-22 10:00:00 CDT
    Ceiling Wind Weather Visbility
    700ft 190° @ 4kt Mist 6SM
    Clouds: Overcast @ 700ft
    Raw: KBHM 212330Z 2200/2224 17004KT P6SM SCT070 BKN200 FM220800 19004KT 6SM BR OVC007 FM221500 20005KT P6SM BKN015 FM221800 20005KT P6SM VCTS BKN035CB
  • TAF
    2024-07-22 10:00:00 CDT – 2024-07-22 13:00:00 CDT
    Ceiling Wind Weather Visbility
    1,500ft 200° @ 5kt N/A 6SM
    Clouds: Broken @ 1,500ft
    Raw: KBHM 212330Z 2200/2224 17004KT P6SM SCT070 BKN200 FM220800 19004KT 6SM BR OVC007 FM221500 20005KT P6SM BKN015 FM221800 20005KT P6SM VCTS BKN035CB
  • TAF
    2024-07-22 13:00:00 CDT – 2024-07-22 19:00:00 CDT
    Ceiling Wind Weather Visbility
    3,500ft 200° @ 5kt Thunderstorm in vicinity 6SM
    Clouds: Broken @ 3,500ft
    Raw: KBHM 212330Z 2200/2224 17004KT P6SM SCT070 BKN200 FM220800 19004KT 6SM BR OVC007 FM221500 20005KT P6SM BKN015 FM221800 20005KT P6SM VCTS BKN035CB
Click/tap to add an annotation marker to the map
Airport Webcams
No webcams added yet.
Direct links to live image URLs will be displayed inline on this page. URLs to separate webpages will be linked to.
URL:
Direct links to live image URLs will be displayed inline on this page. URLs to separate webpages will be linked to.
URL:
Remarks
  • Twy g rstrd to acft 65000 lbs or less.
  • Twy m n of rwy 6/24 rstrd to acft 75000 lbs or less.
  • Twy n rstrd to acft 204000 lbs or less.
  • Bird actv invof rwys.
  • Twy f btn rwy 18/36 & twy g rstrd to acft 100000 lbs or less.
Comments
Leave a comment What was your experience like at this airport?